Hauptseite
METAR-TAF:

METAR-TAF

Flughäfen :

Ramstein Air Base

Ramstein, Deutschland

Breite: 49-26N, Länge: 007-36E, Höhe: 238 m

Beobachtung

Neuester Wetterbericht von vor 16 Minuten, um 01:56 UTC
Windstille
Temperatur 11°C
Luftfeuchtigkeit 100%
Luftdruck 1018 hPa
Sichtweite 10 km oder mehr
Himmel klar

METAR: ETAR 190156Z AUTO 00000KT 9999 CLR 11/11 A3007 RMK AO2 SLP179 T01090109 $

Zeit: 04:12 (02:12 UTC)

Prognose

Neuester Wetterbericht von vor 7 Stunden und 58 Minuten, um 18:14 UTC
Gültige Prognose vom 18 um 18 UTC bis 20 um 00 UTC
Wind 6 kt aus Nord/Nordwest
Sichtweite 10 km oder mehr
Leicht bewölkt in der Höhe von 7000 ft
Übergehend zu
vom 19 um 05 UTC bis 19 um 06 UTC
Wind 6 kt aus Ost/Nordost
Sichtweite 10 km oder mehr
Leicht bewölkt in der Höhe von 7000 ft

TAF: ETAR 181814Z 1818/2000 34006KT 9999 FEW070 QNH3002INS BECMG 1905/1906 06006KT 9999 FEW070 QNH3003INS TX28/1914Z TN12/1904Z

Wetterbeobachtungen und Prognosen von mehr als 4000 Flughäfen (METAR und TAF Bericht).

Die verfügbaren Stationen werden durch gelbe und rote Markierungen auf der Karte dargestellt.

Führen Sie die Maus auf sie, um den Namen der Station zu sehen.

Darauf klicken, um die Beobachtung von Wetterbeobachtungen und Prognosen zu sehen.

Um die Karte zu ändern : klicken Sie auf den grünen Tasten mit einem schwarzen Kreuz Zum Vergrößern, auf den grünen Button mit einem Gedankenstrich zu verkleinern, oder auf die grünen Pfeile für benachbarte Karten.


METAR-TAF: